sensor_id;sensor_type;location;lat;lon;timestamp;pressure;altitude;pressure_sealevel;temperature;humidity
45403;BME280;47427;51.976;5.326;2023-02-01T00:01:12;101905.38;;;4.53;100.00
45403;BME280;47427;51.976;5.326;2023-02-01T00:04:35;101905.50;;;4.54;100.00
45403;BME280;47427;51.976;5.326;2023-02-01T00:07:58;101910.41;;;4.63;100.00
45403;BME280;47427;51.976;5.326;2023-02-01T00:11:20;101914.91;;;4.66;100.00
45403;BME280;47427;51.976;5.326;2023-02-01T00:14:42;101913.94;;;4.64;100.00
45403;BME280;47427;51.976;5.326;2023-02-01T00:18:04;101927.50;;;4.60;100.00
45403;BME280;47427;51.976;5.326;2023-02-01T00:21:27;101922.16;;;4.45;100.00
45403;BME280;47427;51.976;5.326;2023-02-01T00:24:51;101907.56;;;4.47;100.00
45403;BME280;47427;51.976;5.326;2023-02-01T00:28:12;101909.38;;;4.48;100.00
45403;BME280;47427;51.976;5.326;2023-02-01T00:31:38;101905.28;;;4.51;100.00
45403;BME280;47427;51.976;5.326;2023-02-01T00:35:01;101912.56;;;4.44;100.00
45403;BME280;47427;51.976;5.326;2023-02-01T00:38:22;101925.94;;;4.37;100.00
45403;BME280;47427;51.976;5.326;2023-02-01T00:41:46;101913.31;;;4.29;100.00
45403;BME280;47427;51.976;5.326;2023-02-01T00:45:09;101912.78;;;4.22;100.00
45403;BME280;47427;51.976;5.326;2023-02-01T00:48:31;101904.31;;;4.24;100.00
45403;BME280;47427;51.976;5.326;2023-02-01T00:51:55;101905.13;;;4.23;100.00
45403;BME280;47427;51.976;5.326;2023-02-01T00:55:16;101920.47;;;4.20;100.00
45403;BME280;47427;51.976;5.326;2023-02-01T00:58:39;101924.41;;;4.02;100.00
45403;BME280;47427;51.976;5.326;2023-02-01T01:02:02;101937.97;;;3.98;100.00
45403;BME280;47427;51.976;5.326;2023-02-01T01:05:25;101918.47;;;3.91;100.00
45403;BME280;47427;51.976;5.326;2023-02-01T01:08:55;101913.53;;;3.82;100.00
45403;BME280;47427;51.976;5.326;2023-02-01T01:12:17;101911.03;;;3.84;100.00
45403;BME280;47427;51.976;5.326;2023-02-01T01:15:41;101916.50;;;3.75;100.00
45403;BME280;47427;51.976;5.326;2023-02-01T01:19:04;101914.25;;;3.68;100.00
45403;BME280;47427;51.976;5.326;2023-02-01T01:22:27;101909.06;;;3.68;100.00
45403;BME280;47427;51.976;5.326;2023-02-01T01:25:50;101910.50;;;3.64;100.00
45403;BME280;47427;51.976;5.326;2023-02-01T01:29:12;101911.78;;;3.58;100.00
45403;BME280;47427;51.976;5.326;2023-02-01T01:32:34;101892.59;;;3.56;100.00
45403;BME280;47427;51.976;5.326;2023-02-01T01:35:57;101902.09;;;3.55;100.00
45403;BME280;47427;51.976;5.326;2023-02-01T01:39:19;101890.47;;;3.50;100.00
45403;BME280;47427;51.976;5.326;2023-02-01T01:42:43;101905.84;;;3.47;100.00
45403;BME280;47427;51.976;5.326;2023-02-01T01:46:07;101911.34;;;3.52;100.00
45403;BME280;47427;51.976;5.326;2023-02-01T01:49:30;101908.66;;;3.50;100.00
45403;BME280;47427;51.976;5.326;2023-02-01T01:52:53;101901.41;;;3.46;100.00
45403;BME280;47427;51.976;5.326;2023-02-01T01:56:17;101887.78;;;3.48;100.00
45403;BME280;47427;51.976;5.326;2023-02-01T01:59:41;101886.41;;;3.54;100.00
45403;BME280;47427;51.976;5.326;2023-02-01T02:07:00;101863.38;;;3.95;100.00
45403;BME280;47427;51.976;5.326;2023-02-01T02:10:24;101856.19;;;4.04;100.00
45403;BME280;47427;51.976;5.326;2023-02-01T02:14:11;101861.56;;;4.32;100.00
45403;BME280;47427;51.976;5.326;2023-02-01T02:17:57;101866.31;;;4.51;100.00
45403;BME280;47427;51.976;5.326;2023-02-01T02:33:47;101849.50;;;5.39;100.00
45403;BME280;47427;51.976;5.326;2023-02-01T02:37:43;101840.75;;;5.52;100.00
45403;BME280;47427;51.976;5.326;2023-02-01T02:41:18;101841.47;;;5.50;100.00
45403;BME280;47427;51.976;5.326;2023-02-01T02:45:07;101825.91;;;5.51;100.00
45403;BME280;47427;51.976;5.326;2023-02-01T02:52:21;101819.69;;;5.62;100.00
45403;BME280;47427;51.976;5.326;2023-02-01T02:56:07;101837.50;;;5.56;100.00
45403;BME280;47427;51.976;5.326;2023-02-01T02:59:48;101835.84;;;5.72;100.00
45403;BME280;47427;51.976;5.326;2023-02-01T03:03:29;101847.47;;;5.77;100.00
45403;BME280;47427;51.976;5.326;2023-02-01T03:07:55;101814.19;;;5.86;100.00
45403;BME280;47427;51.976;5.326;2023-02-01T03:11:20;101790.63;;;5.84;100.00
45403;BME280;47427;51.976;5.326;2023-02-01T03:14:44;101780.03;;;5.81;100.00
45403;BME280;47427;51.976;5.326;2023-02-01T03:18:46;101798.19;;;5.80;100.00
45403;BME280;47427;51.976;5.326;2023-02-01T03:22:15;101812.41;;;5.72;100.00
45403;BME280;47427;51.976;5.326;2023-02-01T03:25:39;101798.47;;;5.56;100.00
45403;BME280;47427;51.976;5.326;2023-02-01T03:29:21;101804.09;;;5.49;100.00
45403;BME280;47427;51.976;5.326;2023-02-01T03:32:48;101791.13;;;5.36;100.00
45403;BME280;47427;51.976;5.326;2023-02-01T03:36:42;101801.63;;;5.09;100.00
45403;BME280;47427;51.976;5.326;2023-02-01T03:40:09;101814.41;;;5.06;100.00
45403;BME280;47427;51.976;5.326;2023-02-01T03:43:42;101822.53;;;4.97;100.00
45403;BME280;47427;51.976;5.326;2023-02-01T03:47:14;101822.84;;;5.02;100.00
45403;BME280;47427;51.976;5.326;2023-02-01T03:50:39;101810.34;;;4.96;100.00
45403;BME280;47427;51.976;5.326;2023-02-01T03:54:08;101802.44;;;4.82;100.00
45403;BME280;47427;51.976;5.326;2023-02-01T03:57:37;101813.22;;;4.88;100.00
45403;BME280;47427;51.976;5.326;2023-02-01T04:01:00;101821.84;;;4.87;100.00
45403;BME280;47427;51.976;5.326;2023-02-01T04:04:24;101833.81;;;4.98;100.00
45403;BME280;47427;51.976;5.326;2023-02-01T04:07:49;101826.31;;;5.03;100.00
45403;BME280;47427;51.976;5.326;2023-02-01T04:11:12;101824.69;;;5.18;100.00
45403;BME280;47427;51.976;5.326;2023-02-01T04:14:34;101828.94;;;5.44;100.00
45403;BME280;47427;51.976;5.326;2023-02-01T04:17:56;101834.53;;;5.50;100.00
45403;BME280;47427;51.976;5.326;2023-02-01T04:21:19;101825.09;;;5.65;100.00
45403;BME280;47427;51.976;5.326;2023-02-01T04:24:40;101810.63;;;5.71;100.00
45403;BME280;47427;51.976;5.326;2023-02-01T04:28:03;101820.34;;;5.73;100.00
45403;BME280;47427;51.976;5.326;2023-02-01T04:31:27;101813.53;;;5.75;100.00
45403;BME280;47427;51.976;5.326;2023-02-01T04:34:48;101826.44;;;5.74;100.00
45403;BME280;47427;51.976;5.326;2023-02-01T04:38:11;101808.94;;;5.71;100.00
45403;BME280;47427;51.976;5.326;2023-02-01T04:41:34;101810.28;;;5.79;100.00
45403;BME280;47427;51.976;5.326;2023-02-01T04:44:55;101809.97;;;5.88;100.00
45403;BME280;47427;51.976;5.326;2023-02-01T04:48:19;101818.28;;;5.96;100.00
45403;BME280;47427;51.976;5.326;2023-02-01T04:51:42;101820.78;;;5.94;100.00
45403;BME280;47427;51.976;5.326;2023-02-01T04:55:05;101811.84;;;5.91;100.00
45403;BME280;47427;51.976;5.326;2023-02-01T04:58:28;101810.97;;;5.90;100.00
45403;BME280;47427;51.976;5.326;2023-02-01T05:01:49;101809.56;;;5.82;100.00
45403;BME280;47427;51.976;5.326;2023-02-01T05:05:12;101801.16;;;5.86;100.00
45403;BME280;47427;51.976;5.326;2023-02-01T05:08:35;101794.34;;;5.88;100.00
45403;BME280;47427;51.976;5.326;2023-02-01T05:11:56;101804.63;;;5.72;100.00
45403;BME280;47427;51.976;5.326;2023-02-01T05:15:38;101793.78;;;5.51;100.00
45403;BME280;47427;51.976;5.326;2023-02-01T05:19:00;101798.75;;;5.33;100.00
45403;BME280;47427;51.976;5.326;2023-02-01T05:22:23;101798.75;;;5.33;100.00
45403;BME280;47427;51.976;5.326;2023-02-01T05:25:45;101800.00;;;5.53;100.00
45403;BME280;47427;51.976;5.326;2023-02-01T05:29:08;101801.81;;;5.69;100.00
45403;BME280;47427;51.976;5.326;2023-02-01T05:32:31;101808.94;;;5.71;100.00
45403;BME280;47427;51.976;5.326;2023-02-01T05:35:54;101821.00;;;5.56;100.00
45403;BME280;47427;51.976;5.326;2023-02-01T05:39:15;101812.53;;;5.45;100.00
45403;BME280;47427;51.976;5.326;2023-02-01T05:42:38;101824.19;;;5.37;100.00
45403;BME280;47427;51.976;5.326;2023-02-01T05:46:01;101829.09;;;5.19;100.00
45403;BME280;47427;51.976;5.326;2023-02-01T05:49:22;101826.69;;;5.09;100.00
45403;BME280;47427;51.976;5.326;2023-02-01T05:52:45;101835.66;;;5.40;100.00
45403;BME280;47427;51.976;5.326;2023-02-01T05:56:07;101835.19;;;5.61;100.00
45403;BME280;47427;51.976;5.326;2023-02-01T05:59:30;101819.25;;;5.70;100.00
45403;BME280;47427;51.976;5.326;2023-02-01T06:02:52;101816.56;;;5.68;100.00
45403;BME280;47427;51.976;5.326;2023-02-01T06:06:14;101795.25;;;5.60;100.00
45403;BME280;47427;51.976;5.326;2023-02-01T06:09:55;101807.94;;;5.41;100.00
45403;BME280;47427;51.976;5.326;2023-02-01T06:13:16;101807.56;;;5.35;100.00
45403;BME280;47427;51.976;5.326;2023-02-01T06:16:39;101814.41;;;5.19;100.00
45403;BME280;47427;51.976;5.326;2023-02-01T06:20:02;101819.47;;;5.31;100.00
45403;BME280;47427;51.976;5.326;2023-02-01T06:23:26;101828.09;;;5.30;100.00
45403;BME280;47427;51.976;5.326;2023-02-01T06:26:48;101832.00;;;5.24;100.00
45403;BME280;47427;51.976;5.326;2023-02-01T06:30:11;101829.09;;;5.19;100.00
45403;BME280;47427;51.976;5.326;2023-02-01T06:33:37;101839.69;;;5.35;100.00
45403;BME280;47427;51.976;5.326;2023-02-01T06:37:00;101835.00;;;5.30;100.00
45403;BME280;47427;51.976;5.326;2023-02-01T06:40:22;101825.59;;;5.18;100.00
45403;BME280;47427;51.976;5.326;2023-02-01T06:43:44;101833.72;;;5.10;100.00
45403;BME280;47427;51.976;5.326;2023-02-01T06:47:07;101839.59;;;5.20;100.00
45403;BME280;47427;51.976;5.326;2023-02-01T06:50:30;101837.50;;;5.28;100.00
45403;BME280;47427;51.976;5.326;2023-02-01T06:53:52;101834.28;;;5.32;100.00
45403;BME280;47427;51.976;5.326;2023-02-01T06:57:15;101845.28;;;5.28;100.00
45403;BME280;47427;51.976;5.326;2023-02-01T07:00:36;101845.63;;;5.19;100.00
45403;BME280;47427;51.976;5.326;2023-02-01T07:03:59;101839.72;;;5.22;100.00
45403;BME280;47427;51.976;5.326;2023-02-01T07:07:22;101830.31;;;5.24;100.00
45403;BME280;47427;51.976;5.326;2023-02-01T07:10:47;101840.00;;;5.27;100.00
45403;BME280;47427;51.976;5.326;2023-02-01T07:14:10;101845.69;;;5.34;100.00
45403;BME280;47427;51.976;5.326;2023-02-01T07:17:54;101853.19;;;5.43;100.00
45403;BME280;47427;51.976;5.326;2023-02-01T07:21:18;101837.66;;;5.45;100.00
45403;BME280;47427;51.976;5.326;2023-02-01T07:24:41;101837.78;;;5.33;100.00
45403;BME280;47427;51.976;5.326;2023-02-01T07:28:02;101842.69;;;5.28;100.00
45403;BME280;47427;51.976;5.326;2023-02-01T07:31:26;101840.09;;;5.28;100.00
45403;BME280;47427;51.976;5.326;2023-02-01T07:34:51;101843.19;;;5.36;100.00
45403;BME280;47427;51.976;5.326;2023-02-01T07:38:12;101850.75;;;5.46;100.00
45403;BME280;47427;51.976;5.326;2023-02-01T07:41:35;101843.84;;;5.60;100.00
45403;BME280;47427;51.976;5.326;2023-02-01T07:44:57;101836.25;;;5.50;100.00
45403;BME280;47427;51.976;5.326;2023-02-01T07:48:24;101846.66;;;5.50;100.00
45403;BME280;47427;51.976;5.326;2023-02-01T07:51:47;101845.25;;;5.41;100.00
45403;BME280;47427;51.976;5.326;2023-02-01T07:55:09;101852.66;;;5.49;100.00
45403;BME280;47427;51.976;5.326;2023-02-01T07:58:31;101855.59;;;5.40;100.00
45403;BME280;47427;51.976;5.326;2023-02-01T08:01:54;101847.25;;;5.46;100.00
45403;BME280;47427;51.976;5.326;2023-02-01T08:05:16;101859.69;;;5.50;100.00
45403;BME280;47427;51.976;5.326;2023-02-01T08:08:38;101860.81;;;5.68;100.00
45403;BME280;47427;51.976;5.326;2023-02-01T08:12:19;101868.56;;;5.81;100.00
45403;BME280;47427;51.976;5.326;2023-02-01T08:15:42;101868.50;;;5.80;100.00
45403;BME280;47427;51.976;5.326;2023-02-01T08:19:05;101859.75;;;5.79;100.00
45403;BME280;47427;51.976;5.326;2023-02-01T08:22:32;101868.13;;;6.02;100.00
45403;BME280;47427;51.976;5.326;2023-02-01T08:29:27;101847.31;;;5.89;100.00
45403;BME280;47427;51.976;5.326;2023-02-01T08:32:50;101847.94;;;5.84;100.00
45403;BME280;47427;51.976;5.326;2023-02-01T08:36:13;101844.91;;;6.79;100.00
45403;BME280;47427;51.976;5.326;2023-02-01T08:39:34;101849.06;;;6.46;100.00
45403;BME280;47427;51.976;5.326;2023-02-01T08:42:58;101840.50;;;7.41;100.00
45403;BME280;47427;51.976;5.326;2023-02-01T08:46:23;101833.16;;;8.84;100.00
45403;BME280;47427;51.976;5.326;2023-02-01T08:49:45;101832.66;;;9.28;100.00
45403;BME280;47427;51.976;5.326;2023-02-01T08:53:08;101835.94;;;8.02;100.00
45403;BME280;47427;51.976;5.326;2023-02-01T08:56:30;101824.13;;;8.43;100.00
45403;BME280;47427;51.976;5.326;2023-02-01T08:59:52;101843.09;;;8.73;100.00
45403;BME280;47427;51.976;5.326;2023-02-01T09:03:15;101851.31;;;8.99;100.00
45403;BME280;47427;51.976;5.326;2023-02-01T09:06:40;101837.72;;;9.43;100.00
45403;BME280;47427;51.976;5.326;2023-02-01T09:10:04;101834.22;;;9.43;100.00
45403;BME280;47427;51.976;5.326;2023-02-01T09:13:46;101832.25;;;9.19;99.35
45403;BME280;47427;51.976;5.326;2023-02-01T09:17:09;101836.41;;;9.33;100.00
45403;BME280;47427;51.976;5.326;2023-02-01T09:20:32;101820.94;;;9.77;97.17
45403;BME280;47427;51.976;5.326;2023-02-01T09:23:53;101811.13;;;9.16;99.14
45403;BME280;47427;51.976;5.326;2023-02-01T09:27:16;101820.09;;;9.21;100.00
45403;BME280;47427;51.976;5.326;2023-02-01T09:30:39;101813.50;;;9.47;97.27
45403;BME280;47427;51.976;5.326;2023-02-01T09:34:00;101833.31;;;9.05;100.00
45403;BME280;47427;51.976;5.326;2023-02-01T09:37:23;101807.06;;;9.80;97.41
45403;BME280;47427;51.976;5.326;2023-02-01T09:40:47;101815.75;;;9.98;96.66
45403;BME280;47427;51.976;5.326;2023-02-01T09:48:07;101822.84;;;8.69;100.00
45403;BME280;47427;51.976;5.326;2023-02-01T09:51:43;101828.50;;;8.10;100.00
45403;BME280;47427;51.976;5.326;2023-02-01T09:55:18;101832.38;;;7.84;100.00
45403;BME280;47427;51.976;5.326;2023-02-01T09:58:59;101843.72;;;8.00;100.00
45403;BME280;47427;51.976;5.326;2023-02-01T10:02:26;101841.25;;;7.87;100.00
45403;BME280;47427;51.976;5.326;2023-02-01T10:06:17;101851.31;;;7.63;100.00
45403;BME280;47427;51.976;5.326;2023-02-01T10:10:12;101831.53;;;7.52;100.00
45403;BME280;47427;51.976;5.326;2023-02-01T10:14:29;101823.78;;;7.37;100.00
45403;BME280;47427;51.976;5.326;2023-02-01T10:22:05;101823.69;;;7.35;100.00
45403;BME280;47427;51.976;5.326;2023-02-01T10:25:38;101821.28;;;7.07;100.00
45403;BME280;47427;51.976;5.326;2023-02-01T10:29:04;101832.38;;;6.88;100.00
45403;BME280;47427;51.976;5.326;2023-02-01T10:32:35;101825.94;;;6.67;100.00
45403;BME280;47427;51.976;5.326;2023-02-01T10:39:29;101833.66;;;6.50;100.00
45403;BME280;47427;51.976;5.326;2023-02-01T10:43:01;101820.00;;;6.55;100.00
45403;BME280;47427;51.976;5.326;2023-02-01T10:46:25;101824.75;;;6.77;100.00
45403;BME280;47427;51.976;5.326;2023-02-01T10:49:56;101817.53;;;6.87;100.00
45403;BME280;47427;51.976;5.326;2023-02-01T10:57:24;101796.50;;;7.15;100.00
45403;BME280;47427;51.976;5.326;2023-02-01T11:01:07;101804.53;;;7.35;100.00
45403;BME280;47427;51.976;5.326;2023-02-01T11:04:34;101804.94;;;7.43;100.00
45403;BME280;47427;51.976;5.326;2023-02-01T11:07:56;101811.69;;;7.39;100.00
45403;BME280;47427;51.976;5.326;2023-02-01T11:15:22;101815.13;;;7.38;100.00
45403;BME280;47427;51.976;5.326;2023-02-01T11:18:45;101799.72;;;7.43;100.00
45403;BME280;47427;51.976;5.326;2023-02-01T11:22:28;101790.06;;;7.42;100.00
45403;BME280;47427;51.976;5.326;2023-02-01T11:26:01;101782.44;;;6.97;100.00
45403;BME280;47427;51.976;5.326;2023-02-01T11:29:49;101806.41;;;6.75;100.00
45403;BME280;47427;51.976;5.326;2023-02-01T11:33:19;101798.59;;;6.60;100.00
45403;BME280;47427;51.976;5.326;2023-02-01T11:36:46;101788.91;;;6.43;100.00
45403;BME280;47427;51.976;5.326;2023-02-01T11:44:01;101787.09;;;6.57;100.00
45403;BME280;47427;51.976;5.326;2023-02-01T11:47:41;101796.84;;;6.76;100.00
45403;BME280;47427;51.976;5.326;2023-02-01T11:59:11;101781.44;;;7.75;100.00
45403;BME280;47427;51.976;5.326;2023-02-01T12:06:49;101789.13;;;7.72;100.00
45403;BME280;47427;51.976;5.326;2023-02-01T12:14:01;101777.00;;;8.59;100.00
45403;BME280;47427;51.976;5.326;2023-02-01T12:22:22;101762.72;;;8.71;100.00
45403;BME280;47427;51.976;5.326;2023-02-01T12:44:50;101761.22;;;8.40;100.00
45403;BME280;47427;51.976;5.326;2023-02-01T12:48:40;101761.16;;;8.22;100.00
45403;BME280;47427;51.976;5.326;2023-02-01T12:52:20;101755.66;;;8.16;100.00
45403;BME280;47427;51.976;5.326;2023-02-01T12:56:01;101751.06;;;8.12;100.00
45403;BME280;47427;51.976;5.326;2023-02-01T12:59:42;101757.06;;;8.27;100.00
45403;BME280;47427;51.976;5.326;2023-02-01T13:07:16;101749.97;;;8.96;100.00
45403;BME280;47427;51.976;5.326;2023-02-01T13:11:16;101737.16;;;8.83;100.00
45403;BME280;47427;51.976;5.326;2023-02-01T13:14:53;101746.63;;;8.81;100.00
45403;BME280;47427;51.976;5.326;2023-02-01T13:18:20;101762.72;;;8.71;100.00
45403;BME280;47427;51.976;5.326;2023-02-01T13:21:55;101747.91;;;8.53;100.00
45403;BME280;47427;51.976;5.326;2023-02-01T13:25:49;101752.56;;;8.41;100.00
45403;BME280;47427;51.976;5.326;2023-02-01T13:29:20;101752.91;;;8.31;100.00
45403;BME280;47427;51.976;5.326;2023-02-01T13:32:58;101766.50;;;8.23;100.00
45403;BME280;47427;51.976;5.326;2023-02-01T13:44:27;101768.06;;;8.38;100.00
45403;BME280;47427;51.976;5.326;2023-02-01T13:47:54;101756.28;;;8.28;100.00
45403;BME280;47427;51.976;5.326;2023-02-01T13:51:35;101766.53;;;8.25;100.00
45403;BME280;47427;51.976;5.326;2023-02-01T13:55:13;101777.22;;;8.12;100.00
45403;BME280;47427;51.976;5.326;2023-02-01T13:58:40;101778.59;;;8.05;100.00
45403;BME280;47427;51.976;5.326;2023-02-01T14:06:03;101761.94;;;7.85;100.00
45403;BME280;47427;51.976;5.326;2023-02-01T14:09:36;101742.31;;;7.93;100.00
45403;BME280;47427;51.976;5.326;2023-02-01T14:13:29;101784.84;;;7.91;100.00
45403;BME280;47427;51.976;5.326;2023-02-01T14:27:35;101773.47;;;8.07;100.00
45403;BME280;47427;51.976;5.326;2023-02-01T14:30:58;101771.44;;;8.01;100.00
45403;BME280;47427;51.976;5.326;2023-02-01T14:38:09;101763.34;;;7.96;100.00
45403;BME280;47427;51.976;5.326;2023-02-01T14:41:33;101770.59;;;8.02;100.00
45403;BME280;47427;51.976;5.326;2023-02-01T14:48:44;101760.25;;;8.03;100.00
45403;BME280;47427;51.976;5.326;2023-02-01T14:52:15;101764.19;;;7.95;100.00
45403;BME280;47427;51.976;5.326;2023-02-01T14:59:35;101776.53;;;7.32;100.00
45403;BME280;47427;51.976;5.326;2023-02-01T15:07:12;101784.38;;;7.01;100.00
45403;BME280;47427;51.976;5.326;2023-02-01T15:10:44;101787.91;;;7.02;100.00
45403;BME280;47427;51.976;5.326;2023-02-01T15:14:14;101774.78;;;7.00;100.00
45403;BME280;47427;51.976;5.326;2023-02-01T15:17:35;101782.13;;;7.24;100.00
45403;BME280;47427;51.976;5.326;2023-02-01T15:20:59;101787.72;;;7.46;100.00
45403;BME280;47427;51.976;5.326;2023-02-01T15:24:26;101779.66;;;7.58;100.00
45403;BME280;47427;51.976;5.326;2023-02-01T15:27:48;101782.50;;;7.63;100.00
45403;BME280;47427;51.976;5.326;2023-02-01T15:31:11;101796.47;;;7.63;100.00
45403;BME280;47427;51.976;5.326;2023-02-01T15:34:49;101794.75;;;7.64;100.00
45403;BME280;47427;51.976;5.326;2023-02-01T15:41:56;101800.84;;;7.64;100.00
45403;BME280;47427;51.976;5.326;2023-02-01T15:45:20;101805.91;;;7.61;100.00
45403;BME280;47427;51.976;5.326;2023-02-01T15:48:46;101799.88;;;7.62;100.00
45403;BME280;47427;51.976;5.326;2023-02-01T15:55:59;101807.22;;;7.69;100.00
45403;BME280;47427;51.976;5.326;2023-02-01T15:59:32;101818.50;;;7.68;100.00
45403;BME280;47427;51.976;5.326;2023-02-01T16:03:00;101808.44;;;7.59;100.00
45403;BME280;47427;51.976;5.326;2023-02-01T16:09:56;101812.50;;;7.54;100.00
45403;BME280;47427;51.976;5.326;2023-02-01T16:13:19;101821.19;;;7.53;100.00
45403;BME280;47427;51.976;5.326;2023-02-01T16:16:41;101820.03;;;7.48;100.00
45403;BME280;47427;51.976;5.326;2023-02-01T16:20:05;101812.69;;;7.41;100.00
45403;BME280;47427;51.976;5.326;2023-02-01T16:23:26;101822.31;;;7.42;100.00
45403;BME280;47427;51.976;5.326;2023-02-01T16:26:51;101817.16;;;7.44;100.00
45403;BME280;47427;51.976;5.326;2023-02-01T16:30:14;101824.22;;;7.45;100.00
45403;BME280;47427;51.976;5.326;2023-02-01T16:33:35;101832.47;;;7.52;100.00
45403;BME280;47427;51.976;5.326;2023-02-01T16:36:58;101828.53;;;7.60;100.00
45403;BME280;47427;51.976;5.326;2023-02-01T16:40:21;101833.44;;;7.71;100.00
45403;BME280;47427;51.976;5.326;2023-02-01T16:44:03;101831.31;;;7.64;100.00
45403;BME280;47427;51.976;5.326;2023-02-01T16:47:24;101842.09;;;7.70;100.00
45403;BME280;47427;51.976;5.326;2023-02-01T16:50:50;101834.06;;;7.67;100.00
45403;BME280;47427;51.976;5.326;2023-02-01T16:54:12;101835.63;;;7.79;100.00
45403;BME280;47427;51.976;5.326;2023-02-01T16:57:34;101847.06;;;7.81;100.00
45403;BME280;47427;51.976;5.326;2023-02-01T17:00:55;101852.38;;;7.83;100.00
45403;BME280;47427;51.976;5.326;2023-02-01T17:04:18;101852.44;;;7.85;100.00
45403;BME280;47427;51.976;5.326;2023-02-01T17:07:41;101857.34;;;7.78;100.00
45403;BME280;47427;51.976;5.326;2023-02-01T17:11:05;101864.22;;;7.76;100.00
45403;BME280;47427;51.976;5.326;2023-02-01T17:14:32;101869.78;;;7.82;100.00
45403;BME280;47427;51.976;5.326;2023-02-01T17:17:55;101872.31;;;7.81;100.00
45403;BME280;47427;51.976;5.326;2023-02-01T17:21:20;101888.97;;;7.83;100.00
45403;BME280;47427;51.976;5.326;2023-02-01T17:24:43;101884.72;;;7.85;100.00
45403;BME280;47427;51.976;5.326;2023-02-01T17:28:05;101886.41;;;7.85;100.00
45403;BME280;47427;51.976;5.326;2023-02-01T17:31:28;101874.09;;;7.82;100.00
45403;BME280;47427;51.976;5.326;2023-02-01T17:34:50;101876.78;;;7.84;100.00
45403;BME280;47427;51.976;5.326;2023-02-01T17:38:12;101879.91;;;7.93;100.00
45403;BME280;47427;51.976;5.326;2023-02-01T17:41:36;101887.00;;;7.95;100.00
45403;BME280;47427;51.976;5.326;2023-02-01T17:45:26;101888.69;;;7.95;100.00
45403;BME280;47427;51.976;5.326;2023-02-01T17:48:50;101891.41;;;7.96;100.00
45403;BME280;47427;51.976;5.326;2023-02-01T17:52:17;101897.53;;;7.97;100.00
45403;BME280;47427;51.976;5.326;2023-02-01T17:55:43;101893.28;;;7.99;100.00
45403;BME280;47427;51.976;5.326;2023-02-01T17:59:07;101884.41;;;7.95;100.00
45403;BME280;47427;51.976;5.326;2023-02-01T18:02:28;101879.97;;;7.94;100.00
45403;BME280;47427;51.976;5.326;2023-02-01T18:05:53;101886.03;;;7.93;100.00
45403;BME280;47427;51.976;5.326;2023-02-01T18:09:16;101888.47;;;7.90;100.00
45403;BME280;47427;51.976;5.326;2023-02-01T18:12:39;101885.28;;;7.96;100.00
45403;BME280;47427;51.976;5.326;2023-02-01T18:16:03;101885.28;;;7.96;100.00
45403;BME280;47427;51.976;5.326;2023-02-01T18:19:26;101882.00;;;8.00;100.00
45403;BME280;47427;51.976;5.326;2023-02-01T18:22:48;101872.47;;;8.00;100.00
45403;BME280;47427;51.976;5.326;2023-02-01T18:26:13;101879.16;;;7.95;100.00
45403;BME280;47427;51.976;5.326;2023-02-01T18:29:36;101875.63;;;7.95;100.00
45403;BME280;47427;51.976;5.326;2023-02-01T18:32:57;101883.31;;;7.92;100.00
45403;BME280;47427;51.976;5.326;2023-02-01T18:36:19;101886.59;;;7.88;100.00
45403;BME280;47427;51.976;5.326;2023-02-01T18:39:41;101895.59;;;7.93;100.00
45403;BME280;47427;51.976;5.326;2023-02-01T18:43:02;101900.22;;;7.98;100.00
45403;BME280;47427;51.976;5.326;2023-02-01T18:46:25;101900.06;;;7.95;100.00
45403;BME280;47427;51.976;5.326;2023-02-01T18:49:50;101896.72;;;7.98;100.00
45403;BME280;47427;51.976;5.326;2023-02-01T18:53:18;101906.34;;;7.99;100.00
45403;BME280;47427;51.976;5.326;2023-02-01T18:56:41;101890.78;;;8.00;100.00
45403;BME280;47427;51.976;5.326;2023-02-01T19:00:06;101908.06;;;7.98;100.00
45403;BME280;47427;51.976;5.326;2023-02-01T19:03:29;101894.66;;;7.92;100.00
45403;BME280;47427;51.976;5.326;2023-02-01T19:07:10;101901.44;;;7.89;100.00
45403;BME280;47427;51.976;5.326;2023-02-01T19:10:33;101904.22;;;7.92;100.00
45403;BME280;47427;51.976;5.326;2023-02-01T19:13:59;101900.88;;;7.94;100.00
45403;BME280;47427;51.976;5.326;2023-02-01T19:17:21;101904.31;;;7.93;100.00
45403;BME280;47427;51.976;5.326;2023-02-01T19:20:46;101912.16;;;7.93;100.00
45403;BME280;47427;51.976;5.326;2023-02-01T19:24:12;101898.34;;;7.96;100.00
45403;BME280;47427;51.976;5.326;2023-02-01T19:27:34;101907.19;;;7.98;100.00
45403;BME280;47427;51.976;5.326;2023-02-01T19:31:04;101907.34;;;8.01;100.00
45403;BME280;47427;51.976;5.326;2023-02-01T19:34:27;101915.44;;;8.06;100.00
45403;BME280;47427;51.976;5.326;2023-02-01T19:37:50;101885.84;;;8.07;100.00
45403;BME280;47427;51.976;5.326;2023-02-01T19:41:12;101902.28;;;8.04;100.00
45403;BME280;47427;51.976;5.326;2023-02-01T19:44:34;101902.63;;;8.10;100.00
45403;BME280;47427;51.976;5.326;2023-02-01T19:47:57;101908.63;;;8.09;100.00
45403;BME280;47427;51.976;5.326;2023-02-01T19:51:29;101903.25;;;8.06;100.00
45403;BME280;47427;51.976;5.326;2023-02-01T19:54:50;101925.63;;;8.01;100.00
45403;BME280;47427;51.976;5.326;2023-02-01T19:58:13;101910.75;;;8.00;100.00
45403;BME280;47427;51.976;5.326;2023-02-01T20:01:34;101900.13;;;7.97;100.00
45403;BME280;47427;51.976;5.326;2023-02-01T20:04:59;101906.44;;;8.00;100.00
45403;BME280;47427;51.976;5.326;2023-02-01T20:08:22;101916.72;;;7.97;100.00
45403;BME280;47427;51.976;5.326;2023-02-01T20:11:45;101912.16;;;7.93;100.00
45403;BME280;47427;51.976;5.326;2023-02-01T20:15:08;101923.50;;;7.94;100.00
45403;BME280;47427;51.976;5.326;2023-02-01T20:18:31;101928.63;;;7.92;100.00
45403;BME280;47427;51.976;5.326;2023-02-01T20:21:52;101933.53;;;7.86;100.00